.
WxDataArchive / Data Records for 2015-11-18
2015-11-17 November 2015 2015-11-19

Data Records for Wednesday, 18 November 2015

Time	Temp	Chill	HIndex	Humid	Dewpt	 Wind 	HiWind	WindDir	Rain 	Barom
-----	----	-----	------	-----	-----	------	------	-------	-----	-----
00:00	58.1	58.1	58.1	37	32.0	1	6	90	0.00	29.885 
00:05	58.1	58.1	58.1	37	32.0	2	4	112	0.00	29.885 
00:10	58.3	58.3	58.3	37	32.1	1	4	90	0.00	29.885 
00:15	58.3	58.3	58.3	37	32.1	1	6	90	0.00	29.881 
00:20	58.3	58.3	58.3	37	32.1	2	6	90	0.00	29.881 
00:25	58.4	58.4	58.4	37	32.2	2	6	112	0.00	29.881 
00:30	58.4	58.4	58.4	37	32.2	2	7	90	0.00	29.876 
00:35	58.6	58.6	58.6	37	32.4	1	5	112	0.00	29.876 
00:40	58.6	58.6	58.6	37	32.4	2	9	90	0.00	29.876 
00:45	58.7	58.7	58.7	37	32.5	2	7	112	0.00	29.866 
00:50	58.9	58.9	58.9	37	32.7	1	5	90	0.00	29.866 
00:55	58.9	58.9	58.9	38	33.3	1	4	112	0.00	29.866 
01:00	58.9	58.9	58.9	38	33.3	2	6	112	0.00	29.866 
01:05	58.9	58.9	58.9	39	34.0	1	5	112	0.00	29.866 
01:10	58.7	58.7	58.7	39	33.8	2	6	135	0.00	29.866 
01:15	58.7	58.7	58.7	39	33.8	1	4	90	0.00	29.864 
01:20	58.7	58.7	58.7	39	33.8	2	7	112	0.00	29.864 
01:25	58.7	58.7	58.7	39	33.8	2	6	68	0.00	29.864 
01:30	58.7	58.7	58.7	39	33.8	2	5	112	0.00	29.860 
01:35	58.6	58.6	58.6	39	33.7	1	6	90	0.00	29.860 
01:40	58.6	58.6	58.6	39	33.7	2	9	90	0.00	29.860 
01:45	58.6	58.6	58.6	39	33.7	2	5	90	0.00	29.850 
01:50	58.7	58.7	58.7	39	33.8	1	4	112	0.00	29.850 
01:55	58.7	58.7	58.7	39	33.8	2	7	90	0.00	29.850 
02:00	58.7	58.7	58.7	39	33.8	2	6	90	0.00	29.842 
02:05	58.6	58.6	58.6	40	34.4	2	10	90	0.00	29.842 
02:10	58.6	58.6	58.6	40	34.4	1	5	68	0.00	29.842 
02:15	58.4	58.4	58.4	41	34.8	1	5	112	0.00	29.847 
02:20	58.4	58.4	58.4	41	34.8	1	5	112	0.00	29.847 
02:25	58.3	58.3	58.3	41	34.7	2	7	112	0.00	29.847 
02:30	58.3	58.3	58.3	42	35.3	1	5	90	0.00	29.838 
02:35	58.1	58.1	58.1	42	35.1	2	7	90	0.00	29.838 
02:40	58.1	58.1	58.1	42	35.1	1	5	90	0.00	29.838 
02:45	58.1	58.1	58.1	42	35.1	2	6	90	0.00	29.836 
02:50	58.1	58.1	58.1	42	35.1	1	4	112	0.00	29.836 
02:55	58.0	58.0	58.0	43	35.6	1	4	90	0.00	29.836 
03:00	58.0	58.0	58.0	43	35.6	2	5	90	0.00	29.837 
03:05	58.0	58.0	58.0	43	35.6	2	5	135	0.00	29.837 
03:10	58.0	58.0	58.0	43	35.6	2	6	112	0.00	29.837 
03:15	58.0	58.0	58.0	43	35.6	1	6	112	0.00	29.834 
03:20	58.0	58.0	58.0	43	35.6	2	9	112	0.00	29.834 
03:25	58.0	58.0	58.0	43	35.6	1	5	90	0.00	29.834 
03:30	58.0	58.0	58.0	44	36.2	2	8	112	0.00	29.826 
03:35	58.0	58.0	58.0	44	36.2	2	5	112	0.00	29.826 
03:40	58.0	58.0	58.0	44	36.2	2	7	90	0.00	29.826 
03:45	58.0	58.0	58.0	44	36.2	2	6	112	0.00	29.817 
03:50	58.0	58.0	58.0	45	36.8	2	9	90	0.00	29.817 
03:55	58.0	58.0	58.0	45	36.8	2	10	90	0.00	29.817 
04:00	58.0	58.0	58.0	45	36.8	3	10	90	0.00	29.809 
04:05	58.0	58.0	58.0	44	36.2	2	6	90	0.00	29.809 
04:10	58.0	58.0	58.0	45	36.8	2	6	112	0.00	29.809 
04:15	58.0	58.0	58.0	45	36.8	2	8	90	0.00	29.814 
04:20	58.0	58.0	58.0	45	36.8	2	6	112	0.00	29.814 
04:25	58.0	58.0	58.0	45	36.8	2	7	90	0.00	29.814 
04:30	57.8	57.8	57.8	46	37.2	1	5	90	0.00	29.805 
04:35	57.8	57.8	57.8	46	37.2	2	7	112	0.00	29.805 
04:40	57.6	57.6	57.6	46	37.0	2	8	90	0.00	29.805 
04:45	57.6	57.6	57.6	46	37.0	2	6	68	0.00	29.804 
04:50	57.6	57.6	57.6	47	37.5	2	11	90	0.00	29.804 
04:55	57.6	57.6	57.6	47	37.5	1	4	112	0.00	29.804 
05:00	57.6	57.6	57.6	47	37.5	2	6	112	0.00	29.802 
05:05	57.6	57.6	57.6	48	38.1	2	7	112	0.00	29.802 
05:10	57.6	57.6	57.6	48	38.1	1	6	90	0.00	29.802 
05:15	57.6	57.6	57.6	49	38.6	2	7	90	0.00	29.800 
05:20	57.6	57.6	57.6	49	38.6	2	7	90	0.00	29.800 
05:25	57.8	57.8	57.8	49	38.8	2	6	68	0.00	29.800 
05:30	58.0	58.0	58.0	49	38.9	3	7	112	0.00	29.799 
05:35	58.0	58.0	58.0	50	39.5	2	6	90	0.00	29.799 
05:40	58.1	58.1	58.1	50	39.6	4	10	90	0.00	29.799 
05:45	58.1	58.1	58.1	50	39.6	2	6	90	0.00	29.792 
05:50	58.1	58.1	58.1	50	39.6	2	6	90	0.00	29.792 
05:55	58.3	58.3	58.3	50	39.7	3	9	90	0.00	29.792 
06:00	58.3	58.3	58.3	50	39.7	3	10	90	0.00	29.787 
06:05	58.1	58.1	58.1	50	39.6	3	9	90	0.00	29.787 
06:10	58.1	58.1	58.1	51	40.1	3	10	112	0.00	29.787 
06:15	58.1	58.1	58.1	51	40.1	2	7	90	0.00	29.779 
06:20	58.1	58.1	58.1	51	40.1	2	10	90	0.00	29.779 
06:25	58.1	58.1	58.1	51	40.1	3	7	68	0.00	29.779 
06:30	58.0	58.0	58.0	51	40.0	3	10	90	0.00	29.775 
06:35	58.0	58.0	58.0	51	40.0	3	7	112	0.00	29.775 
06:40	58.0	58.0	58.0	51	40.0	2	9	112	0.00	29.775 
06:45	57.8	57.8	57.8	51	39.8	2	9	112	0.00	29.773 
06:50	57.6	57.6	57.6	52	40.1	2	7	90	0.00	29.773 
06:55	57.6	57.6	57.6	52	40.1	2	6	112	0.00	29.773 
07:00	57.6	57.6	57.6	52	40.1	3	6	68	0.00	29.771 
07:05	57.6	57.6	57.6	52	40.1	3	7	112	0.00	29.771 
07:10	57.6	57.6	57.6	52	40.1	2	5	90	0.00	29.771 
07:15	57.6	57.6	57.6	52	40.1	3	6	90	0.00	29.765 
07:20	57.6	57.6	57.6	52	40.1	2	7	112	0.00	29.765 
07:25	57.6	57.6	57.6	52	40.1	1	5	135	0.00	29.765 
07:30	57.6	57.6	57.6	52	40.1	2	10	90	0.00	29.769 
07:35	57.8	57.8	57.8	52	40.3	3	7	90	0.00	29.769 
07:40	57.8	57.8	57.8	53	40.8	3	10	90	0.00	29.769 
07:45	57.8	57.8	57.8	53	40.8	2	6	90	0.00	29.772 
07:50	57.8	57.8	57.8	53	40.8	2	9	90	0.00	29.772 
07:55	57.8	57.8	57.8	53	40.8	2	5	90	0.00	29.772 
08:00	58.0	58.0	58.0	53	41.0	2	6	112	0.00	29.759 
08:05	58.0	58.0	58.0	53	41.0	2	6	112	0.00	29.759 
08:10	58.0	58.0	58.0	53	41.0	3	9	90	0.00	29.759 
08:15	58.1	58.1	58.1	53	41.1	3	10	112	0.00	29.764 
08:20	58.3	58.3	58.3	53	41.2	2	7	112	0.00	29.764 
08:25	58.4	58.4	58.4	53	41.3	1	5	90	0.00	29.764 
08:30	58.6	58.6	58.6	55	42.5	2	8	112	0.00	29.775 
08:35	58.3	58.3	58.3	56	42.7	2	7	90	0.00	29.775 
08:40	58.0	58.0	58.0	59	43.8	1	4	90	0.00	29.775 
08:45	57.5	57.5	57.5	62	44.6	2	7	135	0.00	29.775 
08:50	57.0	57.0	57.0	63	44.5	2	9	90	0.01	29.775 
08:55	56.9	56.9	56.9	64	44.8	1	4	90	0.00	29.775 
09:00	56.7	56.7	56.7	64	44.7	2	5	90	0.00	29.775 
09:05	57.0	57.0	57.0	62	44.1	2	7	112	0.00	29.775 
09:10	57.3	57.3	57.3	62	44.4	2	7	90	0.00	29.775 
09:15	57.6	57.6	57.6	61	44.2	3	11	90	0.00	29.778 
09:20	57.8	57.8	57.8	62	44.9	2	6	112	0.00	29.778 
09:25	57.8	57.8	57.8	62	44.9	2	9	135	0.00	29.778 
09:30	58.0	58.0	58.0	62	45.1	3	9	112	0.00	29.767 
09:35	58.1	58.1	58.1	62	45.1	2	6	112	0.00	29.767 
09:40	58.3	58.3	58.3	62	45.3	3	11	90	0.00	29.767 
09:45	58.4	58.4	58.4	63	45.9	3	9	90	0.00	29.759 
09:50	58.4	58.4	58.4	63	45.9	3	8	90	0.00	29.759 
09:55	58.4	58.4	58.4	63	45.9	3	11	90	0.00	29.759 
10:00	58.6	58.6	58.6	62	45.6	4	11	90	0.00	29.749 
10:05	58.7	58.7	58.7	62	45.7	4	12	112	0.00	29.749 
10:10	58.9	58.9	58.9	62	45.9	4	11	90	0.00	29.749 
10:15	59.0	59.0	59.0	62	46.0	4	12	90	0.00	29.741 
10:20	59.2	59.2	59.2	62	46.2	4	11	112	0.00	29.741 
10:25	59.5	59.5	59.5	62	46.5	4	15	90	0.00	29.741 
10:30	59.6	59.6	59.6	62	46.6	4	11	90	0.00	29.739 
10:35	59.8	59.8	59.8	62	46.8	5	12	90	0.00	29.739 
10:40	59.9	59.9	59.9	62	46.8	5	17	90	0.00	29.739 
10:45	60.1	60.1	60.1	63	47.5	5	16	90	0.00	29.722 
10:50	60.4	60.4	60.4	63	47.7	6	14	90	0.00	29.722 
10:55	60.5	60.5	60.5	62	47.4	6	14	90	0.00	29.722 
11:00	60.5	60.5	60.5	61	47.0	5	16	90	0.00	29.724 
11:05	60.4	60.4	60.4	63	47.7	5	11	90	0.00	29.724 
11:10	60.2	60.2	60.2	63	47.6	6	15	90	0.00	29.724 
11:15	60.2	60.2	60.2	64	48.0	5	13	90	0.00	29.708 
11:20	60.2	60.2	60.2	65	48.4	4	12	90	0.00	29.708 
11:25	60.2	60.2	60.2	65	48.4	6	13	90	0.00	29.708 
11:30	60.2	60.2	60.2	66	48.8	5	16	90	0.00	29.710 
11:35	59.9	59.9	59.9	69	49.7	5	14	90	0.00	29.710 
11:40	59.6	59.6	59.6	72	50.6	4	12	90	0.00	29.710 
11:45	59.2	59.2	59.2	75	51.3	4	16	90	0.00	29.724 
11:50	58.7	58.7	58.7	78	51.9	4	11	90	0.00	29.724 
11:55	58.1	58.1	58.1	80	52.0	4	12	90	0.00	29.724 
12:00	57.6	57.6	57.6	81	51.8	5	13	68	0.00	29.723 
12:05	57.2	57.2	57.2	83	52.1	4	10	112	0.01	29.723 
12:10	56.9	56.9	56.9	84	52.1	5	13	90	0.01	29.723 
12:15	56.6	56.6	56.6	84	51.8	5	13	90	0.00	29.705 
12:20	56.5	56.5	56.5	85	52.0	4	11	90	0.00	29.705 
12:25	56.5	56.5	56.5	85	52.0	3	10	90	0.00	29.705 
12:30	56.3	56.3	56.3	84	51.5	3	9	90	0.00	29.709 
12:35	56.2	56.2	56.2	84	51.4	3	10	90	0.01	29.709 
12:40	56.2	56.2	56.2	85	51.7	3	9	90	0.00	29.709 
12:45	56.0	56.0	56.0	85	51.6	5	11	90	0.02	29.716 
12:50	55.9	55.9	55.9	86	51.8	4	10	112	0.01	29.716 
12:55	55.6	55.6	55.6	87	51.8	4	13	90	0.03	29.716 
13:00	55.4	55.4	55.4	88	51.9	4	12	112	0.02	29.687 
13:05	55.3	55.3	55.3	88	51.8	3	10	90	0.00	29.687 
13:10	55.1	55.1	55.1	89	51.9	3	9	90	0.00	29.687 
13:15	55.1	55.1	55.1	89	51.9	4	12	90	0.01	29.667 
13:20	55.3	55.3	55.3	89	52.1	3	9	112	0.00	29.667 
13:25	55.3	55.3	55.3	90	52.4	3	10	90	0.00	29.667 
13:30	55.3	55.3	55.3	90	52.4	3	9	90	0.00	29.664 
13:35	55.4	55.4	55.4	90	52.5	3	7	90	0.01	29.664 
13:40	55.6	55.6	55.6	91	53.0	4	10	90	0.00	29.664 
13:45	55.7	55.7	55.7	91	53.1	4	11	90	0.01	29.662 
13:50	55.9	55.9	55.9	91	53.3	5	14	90	0.01	29.662 
13:55	56.2	56.2	56.2	91	53.6	5	12	90	0.00	29.662 
14:00	56.3	56.3	56.3	91	53.7	6	14	90	0.01	29.589 
14:05	56.6	56.6	56.6	91	54.0	6	18	90	0.00	29.589 
14:10	57.0	57.0	57.0	90	54.1	8	20	90	0.00	29.589 
14:15	57.3	57.3	57.3	90	54.4	7	18	90	0.00	29.554 
14:20	57.5	57.5	57.5	89	54.3	6	13	90	0.00	29.554 
14:25	57.6	57.6	57.6	88	54.1	5	17	90	0.00	29.554 
14:30	58.0	58.0	58.0	88	54.5	6	13	90	0.00	29.549 
14:35	58.3	58.3	58.3	87	54.4	6	14	68	0.00	29.549 
14:40	58.4	58.4	58.4	86	54.2	7	17	90	0.00	29.549 
14:45	58.7	58.7	58.7	86	54.5	7	18	90	0.00	29.568 
14:50	59.0	59.0	59.0	85	54.5	9	19	90	0.00	29.568 
14:55	59.0	59.0	59.0	84	54.2	7	15	90	0.00	29.568 
15:00	59.0	59.0	59.0	85	54.5	6	15	90	0.00	29.577 
15:05	58.9	58.9	58.9	85	54.4	5	12	90	0.00	29.577 
15:10	58.9	58.9	58.9	85	54.4	6	13	90	0.00	29.577 
15:15	58.7	58.7	58.7	86	54.5	5	12	90	0.00	29.572 
15:20	58.9	58.9	58.9	85	54.4	5	15	90	0.00	29.572 
15:25	58.9	58.9	58.9	85	54.4	5	16	90	0.00	29.572 
15:30	59.0	59.0	59.0	85	54.5	5	13	68	0.00	29.546 
15:35	59.0	59.0	59.0	84	54.2	3	12	90	0.00	29.546 
15:40	59.2	59.2	59.2	84	54.4	4	11	90	0.00	29.546 
15:45	59.3	59.3	59.3	83	54.1	4	13	90	0.00	29.568 
15:50	59.5	59.5	59.5	83	54.3	3	9	90	0.00	29.568 
15:55	59.6	59.6	59.6	82	54.1	4	11	90	0.00	29.568 
16:00	59.6	59.6	59.6	82	54.1	4	10	90	0.00	29.581 
16:05	59.6	59.6	59.6	82	54.1	3	13	112	0.00	29.581 
16:10	59.6	59.6	59.6	81	53.8	3	12	90	0.00	29.581 
16:15	59.8	59.8	59.8	81	54.0	2	11	90	0.00	29.595 
16:20	59.8	59.8	59.8	81	54.0	2	6	112	0.00	29.595 
16:25	59.9	59.9	59.9	80	53.7	2	10	90	0.00	29.595 
16:30	59.9	59.9	59.9	80	53.7	2	7	90	0.00	29.609 
16:35	60.1	60.1	60.1	80	53.9	2	7	90	0.00	29.609 
16:40	60.1	60.1	60.1	80	53.9	2	5	90	0.00	29.609 
16:45	60.1	60.1	60.1	80	53.9	2	6	112	0.00	29.581 
16:50	59.9	59.9	59.9	80	53.7	2	10	90	0.00	29.581 
16:55	59.9	59.9	59.9	80	53.7	1	3	0	0.00	29.581 
17:00	59.9	59.9	59.9	80	53.7	1	6	112	0.00	29.610 
17:05	59.9	59.9	59.9	80	53.7	1	4	112	0.00	29.610 
17:10	59.9	59.9	59.9	79	53.4	1	8	112	0.00	29.610 
17:15	60.1	60.1	60.1	79	53.6	1	5	112	0.00	29.603 
17:20	60.1	60.1	60.1	79	53.6	1	4	112	0.00	29.603 
17:25	60.2	60.2	60.2	79	53.7	1	4	112	0.00	29.603 
17:30	60.2	60.2	60.2	79	53.7	2	5	90	0.00	29.607 
17:35	60.5	60.5	60.5	78	53.6	2	5	112	0.00	29.607 
17:40	60.5	60.5	60.5	78	53.6	2	5	112	0.00	29.607 
17:45	60.7	60.7	60.7	78	53.8	1	7	90	0.00	29.609 
17:50	60.9	60.9	60.9	78	54.0	2	5	90	0.00	29.609 
17:55	60.9	60.9	60.9	78	54.0	2	6	90	0.00	29.609 
18:00	61.0	61.0	61.0	78	54.1	2	7	112	0.00	29.609 
18:05	61.0	61.0	61.0	79	54.4	2	6	90	0.00	29.609 
18:10	61.0	61.0	61.0	79	54.4	0	2	68	0.00	29.609 
18:15	61.0	61.0	61.0	79	54.4	1	2	68	0.00	29.611 
18:20	61.0	61.0	61.0	80	54.8	2	6	68	0.00	29.611 
18:25	61.0	61.0	61.0	80	54.8	2	7	112	0.00	29.611 
18:30	60.9	60.9	60.9	81	55.0	1	4	90	0.00	29.623 
18:35	60.9	60.9	60.9	81	55.0	1	4	90	0.00	29.623 
18:40	60.7	60.7	60.7	82	55.2	2	6	90	0.00	29.623 
18:45	60.7	60.7	60.7	82	55.2	1	4	90	0.00	29.626 
18:50	60.5	60.5	60.5	83	55.3	1	9	90	0.00	29.626 
18:55	60.4	60.4	60.4	84	55.5	2	7	90	0.00	29.626 
19:00	60.1	60.1	60.1	86	55.9	2	6	112	0.00	29.632 
19:05	59.9	59.9	59.9	87	56.0	2	5	90	0.00	29.632 
19:10	59.8	59.8	59.8	88	56.2	2	6	90	0.00	29.632 
19:15	59.6	59.6	59.6	88	56.0	1	4	90	0.00	29.631 
19:20	59.6	59.6	59.6	88	56.0	1	6	90	0.00	29.631 
19:25	59.5	59.5	59.5	89	56.3	0	3	112	0.00	29.631 
19:30	59.5	59.5	59.5	89	56.3	1	5	112	0.00	29.628 
19:35	59.5	59.5	59.5	89	56.3	2	6	90	0.00	29.628 
19:40	59.5	59.5	59.5	89	56.3	1	7	90	0.00	29.628 
19:45	59.5	59.5	59.5	89	56.3	2	5	112	0.00	29.630 
19:50	59.5	59.5	59.5	89	56.3	2	5	68	0.00	29.630 
19:55	59.5	59.5	59.5	89	56.3	0	3	90	0.00	29.630 
20:00	59.5	59.5	59.5	89	56.3	1	5	90	0.00	29.621 
20:05	59.5	59.5	59.5	90	56.6	2	7	90	0.00	29.621 
20:10	59.5	59.5	59.5	90	56.6	1	3	112	0.00	29.621 
20:15	59.5	59.5	59.5	90	56.6	1	5	112	0.00	29.629 
20:20	59.3	59.3	59.3	90	56.4	1	4	45	0.00	29.629 
20:25	59.2	59.2	59.2	90	56.3	1	3	68	0.00	29.629 
20:30	59.2	59.2	59.2	90	56.3	0	3	22	0.00	29.628 
20:35	59.0	59.0	59.0	90	56.1	1	5	135	0.00	29.628 
20:40	59.0	59.0	59.0	90	56.1	1	5	112	0.00	29.628 
20:45	59.0	59.0	59.0	90	56.1	1	4	112	0.00	29.629 
20:50	59.0	59.0	59.0	90	56.1	1	4	112	0.00	29.629 
20:55	59.0	59.0	59.0	90	56.1	1	9	112	0.00	29.629 
21:00	59.0	59.0	59.0	90	56.1	0	2	112	0.00	29.635 
21:05	59.0	59.0	59.0	90	56.1	1	4	112	0.00	29.635 
21:10	58.9	58.9	58.9	90	56.0	0	2	90	0.00	29.635 
21:15	58.9	58.9	58.9	90	56.0	1	3	112	0.00	29.634 
21:20	58.9	58.9	58.9	90	56.0	1	6	68	0.00	29.634 
21:25	58.9	58.9	58.9	90	56.0	0	2	90	0.00	29.634 
21:30	58.9	58.9	58.9	90	56.0	0	5	338	0.00	29.642 
21:35	58.9	58.9	58.9	90	56.0	0	4	248	0.00	29.642 
21:40	59.0	59.0	59.0	90	56.1	0	2	202	0.00	29.642 
21:45	59.0	59.0	59.0	90	56.1	0	2	202	0.00	29.648 
21:50	59.0	59.0	59.0	90	56.1	0	3	202	0.00	29.648 
21:55	58.9	58.9	58.9	90	56.0	0	3	270	0.00	29.648 
22:00	58.7	58.7	58.7	89	55.5	1	3	270	0.00	29.651 
22:05	58.4	58.4	58.4	88	54.9	1	5	270	0.00	29.651 
22:10	58.3	58.3	58.3	86	54.1	1	4	248	0.00	29.651 
22:15	58.3	58.3	58.3	84	53.5	1	5	248	0.00	29.655 
22:20	58.1	58.1	58.1	82	52.6	1	3	248	0.00	29.655 
22:25	58.3	58.3	58.3	82	52.8	0	3	248	0.00	29.655 
22:30	58.3	58.3	58.3	82	52.8	1	5	248	0.00	29.659 
22:35	58.0	58.0	58.0	81	52.2	1	4	248	0.00	29.659 
22:40	57.6	57.6	57.6	78	50.8	1	6	248	0.00	29.659 
22:45	57.5	57.5	57.5	77	50.3	0	2	248	0.00	29.666 
22:50	57.3	57.3	57.3	76	49.8	0	3	248	0.00	29.666 
22:55	57.0	57.0	57.0	73	48.4	1	5	248	0.00	29.666 
23:00	57.0	57.0	57.0	71	47.7	1	4	248	0.00	29.660 
23:05	56.9	56.9	56.9	69	46.8	1	5	248	0.00	29.660 
23:10	56.7	56.7	56.7	68	46.3	1	6	248	0.00	29.660 
23:15	56.6	56.6	56.6	68	46.2	1	3	248	0.00	29.672 
23:20	56.5	56.5	56.5	67	45.7	1	5	248	0.00	29.672 
23:25	56.3	56.3	56.3	67	45.5	1	4	248	0.00	29.672 
23:30	56.2	56.2	56.2	67	45.4	1	4	248	0.00	29.681 
23:35	56.0	56.0	56.0	68	45.6	1	4	248	0.00	29.681 
23:40	55.7	55.7	55.7	68	45.3	1	3	248	0.00	29.681 
23:45	55.6	55.6	55.6	68	45.2	1	5	248	0.00	29.680 
23:50	55.4	55.4	55.4	69	45.4	0	2	248	0.00	29.680 
23:55	55.1	55.1	55.1	69	45.1	0	3	248	0.00	29.680 

CoCoRaHS
IN-AL-39
A2 Web Hosting
Creative Commons License
GoDaddy
search engine by freefind advanced

loaded 2018-11-13 02:35:11 • last modified 2010-11-18 10:43:29
Privacy PolicyDisclaimer
• wx.awcolley.com is powered by PmWiki v.2002016 •
• all content (unless otherwise noted) © 2018 A W Colley